Latest Weather Observations for Dum In Mirrie

IDD60801

Issued at 12:51 pm CST Sunday 16 December 2018 (issued every 10 minutes, with the page automatically refreshed every 10 minutes)

About weather observations | Map of weather stations | Latest weather observations for NT | Other Formats
Station Details ID: 014277 Name: DUM IN MIRRIE AIRSTRIP Lat: -12.63 Lon: 130.37 Height: 3.5 m
Data from the previous 72 hours. | See also: Recent months at Dum In Mirrie
Date/Time
CST
Temp
°C
App
Temp
°C
Dew
Point
°C
Rel
Hum
%
Delta-T
°C
Wind Press
QNH
hPa
Press
MSL
hPa
Rain since
9am
mm
Dir  Spd
km/h
Gust
km/h
Spd
kts
Gust
kts
16/12:30pm 32.2 35.0 25.0 65 5.1 W 19 30 10 16 1006.9 1006.9 0.0
16/12:00pm 32.3 35.6 25.1 65 5.1 W 17 24 9 13 1007.3 1007.3 0.0
16/11:30am 32.7 37.2 25.2 64 5.3 W 11 22 6 12 1007.5 1007.5 0.0
16/11:00am 31.8 34.8 25.2 68 4.7 W 19 26 10 14 1007.7 1007.7 0.0
16/10:30am 32.1 36.6 25.2 67 4.9 W 11 20 6 11 1007.6 1007.6 0.0
16/10:00am 31.6 35.5 25.5 70 4.3 W 15 24 8 13 1007.5 1007.5 0.0
16/09:30am 31.2 35.4 24.8 69 4.5 W 11 19 6 10 1007.4 1007.4 0.0
16/09:00am 30.2 35.1 25.3 75 3.5 W 9 19 5 10 1007.7 1007.7 0.0
16/08:30am 30.9 34.4 24.8 70 4.3 W 15 22 8 12 1007.7 1007.7 0.0
16/08:00am 30.5 34.5 25.1 73 3.8 W 13 19 7 10 1007.8 1007.8 0.0
16/07:30am 29.8 34.4 25.3 77 3.2 W 11 20 6 11 1007.6 1007.6 0.0
16/07:00am 29.5 34.2 25.0 77 3.2 W 9 17 5 9 1007.3 1007.3 0.0
16/06:30am 29.3 33.9 24.8 77 3.2 W 9 20 5 11 1006.6 1006.6 0.0
16/06:00am 29.2 33.6 24.5 76 3.3 WNW 9 19 5 10 1006.2 1006.2 0.0
16/05:30am 29.1 33.4 24.2 75 3.4 W 9 17 5 9 1005.8 1005.8 0.0
16/05:00am 29.3 33.9 24.8 77 3.1 W 9 19 5 10 1005.2 1005.2 0.0
16/04:30am 29.2 33.6 25.0 78 3.0 W 11 24 6 13 1004.8 1004.8 0.0
16/04:00am 29.1 33.7 24.7 77 3.1 W 9 19 5 10 1004.7 1004.7 0.0
16/03:30am 29.3 33.0 25.1 78 3.0 W 15 24 8 13 1004.7 1004.7 0.0
16/03:00am 29.2 33.8 24.7 77 3.2 W 9 17 5 9 1004.9 1004.9 0.0
16/02:30am 29.3 33.8 24.6 76 3.3 W 9 19 5 10 1005.0 1005.0 0.0
16/02:00am 29.5 34.4 25.3 78 3.0 W 9 17 5 9 1005.4 1005.4 0.0
16/01:30am 29.3 33.8 24.6 76 3.3 WNW 9 17 5 9 1005.3 1005.3 0.0
16/01:00am 29.4 34.0 24.7 76 3.3 W 9 15 5 8 1005.8 1005.8 0.0
16/12:30am 29.5 34.0 24.6 75 3.4 W 9 17 5 9 1006.0 1006.0 0.0
16/12:00am 29.6 34.0 25.1 77 3.2 W 11 20 6 11 1006.5 1006.5 0.0
 
Date/Time
CST
Temp
°C
App
Temp
°C
Dew
Point
°C
Rel
Hum
%
Delta-T
°C
Wind Press
QNH
hPa
Press
MSL
hPa
Rain since
9am
mm
Dir  Spd
km/h
Gust
km/h
Spd
kts
Gust
kts
15/11:30pm 29.6 33.9 24.9 76 3.3 W 11 19 6 10 1006.6 1006.6 0.0
15/11:00pm 29.5 34.0 24.6 75 3.4 W 9 17 5 9 1006.5 1006.5 0.0
15/10:30pm 29.6 34.2 24.7 75 3.4 W 9 17 5 9 1006.0 1006.0 0.0
15/10:00pm 29.6 33.7 24.5 74 3.6 W 11 19 6 10 1005.6 1005.6 0.0
15/09:30pm 29.7 33.9 24.8 75 3.4 W 11 20 6 11 1005.5 1005.5 0.0
15/09:00pm 29.7 34.3 24.8 75 3.4 W 9 15 5 8 1005.4 1005.4 0.0
15/08:30pm 29.8 34.1 24.9 75 3.4 W 11 22 6 12 1005.1 1005.1 0.0
15/08:00pm 29.9 34.3 25.0 75 3.4 W 11 20 6 11 1004.8 1004.8 0.0
15/07:30pm 29.9 34.4 25.2 76 3.3 W 11 24 6 13 1004.4 1004.4 0.0
15/07:00pm 30.1 34.8 25.6 77 3.2 W 11 20 6 11 1004.0 1004.0 0.0
15/06:30pm 30.4 35.6 25.7 76 3.3 W 9 19 5 10 1003.9 1003.9 0.0
15/06:00pm 31.3 36.0 25.6 71 4.1 W 11 20 6 11 1004.0 1004.0 0.0
15/05:30pm 31.8 36.9 25.6 69 4.4 W 9 20 5 11 1003.9 1003.9 0.0
15/05:00pm 31.9 36.6 25.5 69 4.5 W 11 24 6 13 1003.9 1003.9 0.0
15/04:30pm 32.5 37.7 26.3 70 4.5 W 11 24 6 13 1003.6 1003.6 0.0
15/04:00pm 32.3 36.6 26.6 72 4.1 W 17 26 9 14 1004.0 1004.0 0.0
15/03:30pm 32.5 36.4 26.1 69 4.6 W 17 30 9 16 1004.1 1004.1 0.0
15/03:00pm 32.3 36.1 25.9 69 4.6 WSW 17 28 9 15 1004.3 1004.3 0.0
15/02:30pm 32.5 36.4 26.6 71 4.3 W 19 32 10 17 1004.5 1004.5 0.0
15/02:00pm 31.9 35.5 26.2 72 4.1 WSW 19 28 10 15 1004.9 1004.9 0.0
15/01:30pm 32.2 35.4 25.8 69 4.6 W 20 28 11 15 1005.3 1005.3 0.0
15/01:00pm 32.1 35.5 25.9 70 4.4 WSW 19 26 10 14 1005.6 1005.6 0.0
15/12:30pm 32.5 36.5 25.6 67 4.9 W 15 24 8 13 1006.1 1006.1 0.0
15/12:00pm 32.6 36.8 25.4 66 5.1 W 13 26 7 14 1006.1 1006.1 0.0
15/11:30am 32.1 35.5 25.9 70 4.4 W 19 28 10 15 1006.5 1006.5 0.0
15/11:00am 32.3 36.1 25.9 69 4.6 W 17 28 9 15 1006.9 1006.9 0.0
15/10:30am 31.9 35.4 26.0 71 4.2 W 19 26 10 14 1007.1 1007.1 0.0
15/10:00am 31.3 35.2 26.1 74 3.7 W 17 28 9 15 1006.9 1006.9 0.0
15/09:30am 31.6 36.0 26.2 73 3.9 W 15 28 8 15 1006.9 1006.9 0.0
15/09:00am 31.4 36.5 26.2 74 3.7 W 11 24 6 13 1006.9 1006.9 0.0
15/08:30am 30.7 36.0 26.4 78 3.1 W 11 24 6 13 1006.5 1006.5 0.0
15/08:00am 30.4 35.5 26.1 78 3.1 W 11 24 6 13 1006.1 1006.1 0.0
15/07:30am 30.1 35.4 25.8 78 3.1 W 9 20 5 11 1005.8 1005.8 0.0
15/07:00am 29.7 35.4 25.9 80 2.7 W 7 17 4 9 1005.5 1005.5 0.0
15/06:30am 29.5 34.4 25.9 81 2.6 W 11 24 6 13 1005.2 1005.2 0.0
15/06:00am 29.4 34.1 25.6 80 2.7 W 11 26 6 14 1004.6 1004.6 0.0
15/05:30am 29.4 34.7 25.8 81 2.6 W 9 20 5 11 1004.1 1004.1 0.0
15/05:00am 29.5 34.3 25.7 80 2.7 W 11 28 6 15 1003.9 1003.9 0.0
15/04:30am 29.6 33.6 25.6 79 2.8 W 15 32 8 17 1003.9 1003.9 0.0
15/04:00am 29.6 34.3 25.6 79 2.8 W 11 22 6 12 1004.0 1004.0 0.0
15/03:30am 29.6 34.1 25.8 80 2.7 W 13 26 7 14 1004.2 1004.2 0.0
15/03:00am 29.7 33.6 25.4 78 3.0 W 15 28 8 15 1004.4 1004.4 0.0
15/02:30am 29.6 34.0 25.6 79 2.8 W 13 28 7 15 1004.6 1004.6 0.0
15/02:00am 29.6 33.6 25.6 79 2.8 W 15 24 8 13 1004.7 1004.7 0.0
15/01:30am 29.6 34.0 25.6 79 2.8 W 13 22 7 12 1005.1 1005.1 0.0
15/01:00am 29.7 33.9 25.4 78 3.0 W 13 28 7 15 1005.1 1005.1 0.0
15/12:30am 29.8 34.3 25.8 79 2.8 W 13 22 7 12 1005.3 1005.3 0.0
15/12:00am 29.8 34.7 25.8 79 2.8 W 11 24 6 13 1005.5 1005.5 0.0
 
Date/Time
CST
Temp
°C
App
Temp
°C
Dew
Point
°C
Rel
Hum
%
Delta-T
°C
Wind Press
QNH
hPa
Press
MSL
hPa
Rain since
9am
mm
Dir  Spd
km/h
Gust
km/h
Spd
kts
Gust
kts
14/11:30pm 29.8 34.4 26.0 80 2.7 W 13 22 7 12 1005.9 1005.9 0.0
14/11:00pm 29.6 34.3 25.6 79 2.8 W 11 20 6 11 1006.2 1006.2 0.0
14/10:30pm 29.6 34.7 25.6 79 2.8 W 9 19 5 10 1006.2 1006.2 0.0
14/10:00pm 29.6 34.0 25.1 77 3.2 W 11 22 6 12 1005.9 1005.9 0.0
14/09:30pm 29.5 34.1 25.3 78 3.0 W 11 20 6 11 1005.7 1005.7 0.0
14/09:00pm 29.6 34.2 25.4 78 3.0 W 11 20 6 11 1005.3 1005.3 0.0
14/08:30pm 29.6 34.3 25.6 79 2.8 W 11 22 6 12 1005.0 1005.0 0.0
14/08:00pm 29.7 33.4 25.2 77 3.2 W 15 28 8 15 1004.5 1004.5 0.0
14/07:30pm 29.7 33.3 25.0 76 3.3 W 15 24 8 13 1004.1 1004.1 0.0
14/07:00pm 29.9 34.6 25.0 75 3.4 WSW 9 20 5 11 1003.9 1003.9 0.0
14/06:30pm 30.1 33.7 25.6 77 3.2 W 17 28 9 15 1003.8 1003.8 0.0
14/06:00pm 30.2 34.0 25.9 78 3.1 W 17 30 9 16 1003.7 1003.7 0.0
14/05:30pm 30.1 33.8 25.8 78 3.1 W 17 26 9 14 1003.6 1003.6 0.0
14/05:00pm 30.4 35.1 26.1 78 3.1 W 13 22 7 12 1003.5 1003.5 0.0
14/04:30pm 30.4 34.7 26.1 78 3.1 W 15 26 8 14 1003.6 1003.6 0.0
14/04:00pm 30.6 34.8 25.9 76 3.3 W 15 24 8 13 1003.6 1003.6 0.0
14/03:30pm 31.2 36.0 26.2 75 3.6 W 13 22 7 12 1003.6 1003.6 0.0
14/03:00pm 31.5 36.4 25.8 72 4.1 W 11 20 6 11 1003.8 1003.8 0.0
14/02:30pm 32.8 38.5 26.4 69 4.6 W 9 17 5 9 1004.0 1004.0 0.0
14/02:00pm 31.8 36.9 25.6 69 4.4 WNW 9 17 5 9 1004.2 1004.2 0.0
14/01:30pm 32.6 37.8 25.7 67 4.9 WNW 9 15 5 8 1004.4 1004.4 0.0
14/01:00pm 31.7 37.5 25.8 71 4.2 WNW 6 13 3 7 1004.5 1004.5 0.0
14/12:30pm 31.3 36.6 24.9 69 4.5 NW 6 13 3 7 1004.7 1004.7 0.0
14/12:00pm 32.1 37.5 25.4 67 4.8 WNW 7 15 4 8 1004.8 1004.8 0.0
14/11:30am 32.1 37.7 25.7 69 4.6 WNW 7 17 4 9 1005.0 1005.0 0.0
14/11:00am 31.9 37.1 25.7 69 4.4 WNW 9 19 5 10 1005.2 1005.2 0.0
14/10:30am 31.9 37.0 25.5 69 4.6 WNW 9 20 5 11 1005.4 1005.4 0.0
14/10:00am 31.8 35.6 24.7 66 5.0 W 13 24 7 13 1005.7 1005.7 0.0
14/09:30am 31.2 34.0 24.3 66 4.8 W 17 28 9 15 1006.0 1006.0 0.0
14/09:00am 29.7 34.8 23.4 69 4.3 SE 2 6 1 3 1006.1 1006.1 0.0
14/08:30am 29.0 32.7 22.2 66 4.6 SSE 6 13 3 7 1006.1 1006.1 0.0
14/08:00am 28.5 32.5 22.0 68 4.4 S 4 9 2 5 1005.9 1005.9 0.0
14/07:30am 28.1 31.2 21.4 67 4.5 SSW 7 17 4 9 1005.7 1005.7 0.0
14/07:00am 27.9 31.5 22.4 72 3.7 SSW 7 15 4 8 1005.7 1005.7 0.0
14/06:30am 27.1 31.2 22.9 78 2.9 SSW 6 9 3 5 1005.1 1005.1 0.0
14/06:00am 27.2 31.1 23.0 78 2.9 SSW 7 15 4 8 1005.1 1005.1 0.0
14/05:30am 27.1 30.5 23.3 80 2.6 SW 11 20 6 11 1004.7 1004.7 0.0
14/05:00am 26.5 30.2 23.2 82 2.2 SW 9 20 5 11 1004.0 1004.0 0.0
14/04:30am 25.9 29.9 22.8 83 2.1 SSW 6 9 3 5 1003.6 1003.6 0.0
14/04:00am 26.0 30.7 23.3 85 1.8 NE 4 9 2 5 1002.9 1002.9 0.0
14/03:30am 26.6 30.6 23.7 84 2.0 SSW 9 24 5 13 1004.1 1004.1 0.0
14/03:00am 30.1 32.6 26.5 81 2.6 W 26 43 14 23 1004.4 1004.4 0.0
14/02:30am 30.1 33.2 26.3 80 2.7 W 22 33 12 18 1004.7 1004.7 0.0
14/02:00am 30.0 34.4 26.2 80 2.7 W 15 26 8 14 1004.8 1004.8 0.0
14/01:30am 30.0 34.2 26.0 79 2.9 W 15 28 8 15 1004.9 1004.9 0.0
14/01:00am 29.8 33.5 25.8 79 2.8 W 17 26 9 14 1004.0 1004.0 0.0
14/12:30am 29.9 34.5 25.9 79 2.8 W 13 24 7 13 1004.7 1004.7 0.0
14/12:00am 29.8 35.4 25.8 79 2.8 W 7 20 4 11 1005.5 1005.5 0.0
 
Date/Time
CST
Temp
°C
App
Temp
°C
Dew
Point
°C
Rel
Hum
%
Delta-T
°C
Wind Press
QNH
hPa
Press
MSL
hPa
Rain since
9am
mm
Dir  Spd
km/h
Gust
km/h
Spd
kts
Gust
kts
13/11:30pm 29.9 34.1 25.4 77 3.2 WSW 13 24 7 13 1005.9 1005.9 0.0
13/11:00pm 29.9 34.5 25.9 79 2.8 W 13 30 7 16 1005.9 1005.9 0.0
13/10:30pm 30.1 34.2 25.8 78 3.1 WSW 15 24 8 13 1006.4 1006.4 0.0
13/10:00pm 29.9 34.1 25.4 77 3.2 W 13 24 7 13 1006.3 1006.3 0.0
13/09:30pm 30.2 33.7 25.5 76 3.3 WSW 17 28 9 15 1006.2 1006.2 0.0
13/09:00pm 30.1 33.3 25.6 77 3.2 W 19 28 10 15 1005.8 1005.8 0.0
13/08:30pm 30.1 32.9 25.2 75 3.5 W 20 32 11 17 1005.5 1005.5 0.0
13/08:00pm 30.3 34.3 25.1 73 3.7 WSW 13 30 7 16 1004.6 1004.6 0.0
13/07:30pm 30.6 32.6 25.7 75 3.5 WSW 26 41 14 22 1004.7 1004.7 0.0
13/07:00pm 30.8 34.7 25.4 73 3.8 WSW 15 26 8 14 1004.5 1004.5 0.0
13/06:30pm 30.9 35.2 25.5 73 3.8 WSW 13 24 7 13 1003.9 1003.9 0.0
13/06:00pm 31.4 34.9 25.5 71 4.2 WSW 17 30 9 16 1003.3 1003.3 0.0
13/05:30pm 31.7 35.5 25.3 69 4.5 WSW 15 22 8 12 1003.0 1003.0 0.0
13/05:00pm 32.0 36.6 25.3 67 4.7 W 11 20 6 11 1002.9 1002.9 0.0
13/04:30pm 32.3 37.0 25.6 67 4.8 WSW 11 20 6 11 1003.0 1003.0 0.0
13/04:00pm 32.5 37.1 25.3 66 5.1 W 11 19 6 10 1003.0 1003.0 0.0
13/03:30pm 32.4 37.7 25.2 66 5.1 WSW 7 17 4 9 1003.4 1003.4 0.0
13/03:00pm 32.3 36.6 24.9 65 5.2 WSW 11 20 6 11 1003.5 1003.5 0.0
13/02:30pm 32.9 37.8 25.2 64 5.5 WSW 9 24 5 13 1003.6 1003.6 0.0
13/02:00pm 32.2 35.1 24.5 64 5.4 WSW 17 24 9 13 1004.0 1004.0 0.0
13/01:30pm 31.5 35.4 25.4 70 4.3 W 15 24 8 13 1004.3 1004.3 0.0
13/01:00pm 31.3 35.9 25.4 71 4.2 W 11 19 6 10 1004.6 1004.6 0.0

Other Formats:

Comma delimited format used in spreadsheet applications
http://www.bom.gov.au/fwo/IDD60801/IDD60801.94116.axf

JavaScript Object Notation format (JSON) in row-major order
http://www.bom.gov.au/fwo/IDD60801/IDD60801.94116.json